createdAt,value
2022-12-17T00:01:58.247Z,113.70
2022-12-17T00:04:58.787Z,113.82
2022-12-17T00:08:05.246Z,115.72
2022-12-17T00:11:06.027Z,116.18
2022-12-17T00:14:13.213Z,116.25
2022-12-17T00:17:13.818Z,118.65
2022-12-17T00:20:20.268Z,119.10
2022-12-17T00:23:35.512Z,116.28
2022-12-17T00:26:42.124Z,117.72
2022-12-17T00:29:49.284Z,119.20
2022-12-17T00:32:53.198Z,120.40
2022-12-17T00:36:00.261Z,122.05
2022-12-17T00:39:01.141Z,127.82
2022-12-17T00:42:08.298Z,123.93
2022-12-17T00:45:11.191Z,121.95
2022-12-17T00:48:20.375Z,122.07
2022-12-17T00:51:28.406Z,121.13
2022-12-17T00:54:36.286Z,122.70
2022-12-17T00:57:38.395Z,125.93
2022-12-17T01:00:41.912Z,125.00
2022-12-17T01:03:48.426Z,129.63
2022-12-17T01:06:48.863Z,128.52
2022-12-17T01:09:55.312Z,128.52
2022-12-17T01:12:56.720Z,133.93
2022-12-17T01:16:04.216Z,139.38
2022-12-17T01:19:04.554Z,141.20
2022-12-17T01:22:11.296Z,138.05
2022-12-17T01:25:18.140Z,141.50
2022-12-17T01:28:19.323Z,140.85
2022-12-17T01:31:29.068Z,146.05
2022-12-17T01:34:31.905Z,148.52
2022-12-17T01:37:39.201Z,144.75
2022-12-17T01:40:42.057Z,150.93
2022-12-17T01:44:01.247Z,151.98
2022-12-17T01:47:12.087Z,152.80
2022-12-17T01:50:19.373Z,151.20
2022-12-17T01:53:31.393Z,154.57
2022-12-17T01:56:32.587Z,149.52
2022-12-17T01:59:41.340Z,150.73
2022-12-17T02:02:49.208Z,151.68
2022-12-17T02:06:00.441Z,149.43
2022-12-17T02:09:17.218Z,156.35
2022-12-17T02:12:18.387Z,161.60
2022-12-17T02:15:45.061Z,158.82
2022-12-17T02:18:51.183Z,162.32
2022-12-17T02:21:55.365Z,162.77
2022-12-17T02:28:16.941Z,165.05
2022-12-17T02:31:24.324Z,168.82
2022-12-17T02:34:26.218Z,175.85
2022-12-17T02:37:34.460Z,174.88
2022-12-17T02:40:36.126Z,173.73
2022-12-17T02:43:45.236Z,174.98
2022-12-17T02:47:13.625Z,179.65
2022-12-17T02:50:14.247Z,176.70
2022-12-17T02:53:22.270Z,175.95
2022-12-17T02:56:28.733Z,172.60
2022-12-17T02:59:29.309Z,174.27
2022-12-17T03:02:43.363Z,172.80
2022-12-17T03:05:50.262Z,174.05
2022-12-17T03:08:57.276Z,171.32
2022-12-17T03:12:04.309Z,165.65
2022-12-17T03:15:04.847Z,169.68
2022-12-17T03:18:12.202Z,165.77
2022-12-17T03:21:14.148Z,168.05
2022-12-17T03:24:21.362Z,168.00
2022-12-17T03:27:21.782Z,161.18
2022-12-17T03:30:30.982Z,158.27
2022-12-17T03:33:40.217Z,154.05
2022-12-17T03:36:50.340Z,153.45
2022-12-17T03:39:50.498Z,143.10
2022-12-17T03:42:57.243Z,139.85
2022-12-17T03:45:57.836Z,136.68
2022-12-17T03:49:04.320Z,125.18
2022-12-17T03:52:04.862Z,121.00
2022-12-17T03:55:11.162Z,116.32
2022-12-17T03:58:18.172Z,112.07
2022-12-17T04:01:26.296Z,106.63
2022-12-17T04:04:39.397Z,96.88
2022-12-17T04:07:46.191Z,100.13
2022-12-17T04:10:46.180Z,99.22
2022-12-17T04:13:54.242Z,97.97
2022-12-17T04:16:55.141Z,95.65
2022-12-17T04:19:55.700Z,94.30
2022-12-17T04:23:02.205Z,95.78
2022-12-17T04:26:08.965Z,100.00
2022-12-17T04:29:10.351Z,97.07
2022-12-17T04:32:17.207Z,95.55
2022-12-17T04:35:18.302Z,93.43
2022-12-17T04:38:18.921Z,81.72
2022-12-17T04:41:25.349Z,74.25
2022-12-17T04:44:31.770Z,66.32
2022-12-17T04:47:32.220Z,60.90
2022-12-17T04:50:32.579Z,60.03
2022-12-17T04:53:39.440Z,58.78
2022-12-17T04:56:40.307Z,62.90
2022-12-17T04:59:47.325Z,63.05
2022-12-17T05:02:47.646Z,63.45
2022-12-17T05:05:57.279Z,63.45
2022-12-17T05:09:04.095Z,61.25
2022-12-17T05:12:05.331Z,60.55
2022-12-17T05:15:11.865Z,60.20
2022-12-17T05:18:12.217Z,57.50
2022-12-17T05:21:19.321Z,55.70
2022-12-17T05:24:19.949Z,55.17
2022-12-17T05:27:26.352Z,51.15
2022-12-17T05:30:40.220Z,46.20
2022-12-17T05:33:47.360Z,45.38
2022-12-17T05:36:47.854Z,45.33
2022-12-17T05:39:54.358Z,42.20
2022-12-17T05:42:58.012Z,44.42
2022-12-17T05:46:06.381Z,43.58
2022-12-17T05:49:07.966Z,45.00
2022-12-17T05:52:15.156Z,44.47
2022-12-17T05:55:15.689Z,44.85
2022-12-17T05:58:48.357Z,44.65
2022-12-17T06:01:49.084Z,43.10
2022-12-17T06:05:01.814Z,45.60
2022-12-17T06:08:03.176Z,49.83
2022-12-17T06:11:12.251Z,49.58
2022-12-17T06:14:14.612Z,51.17
2022-12-17T06:17:22.586Z,53.10
2022-12-17T06:20:22.720Z,55.55
2022-12-17T06:23:32.185Z,56.40
2022-12-17T06:26:33.062Z,51.05
2022-12-17T06:29:51.176Z,53.10
2022-12-17T06:32:58.025Z,49.33
2022-12-17T06:35:59.317Z,50.42
2022-12-17T06:39:06.205Z,47.25
2022-12-17T06:42:07.288Z,46.47
2022-12-17T06:45:17.379Z,44.72
2022-12-17T06:48:18.273Z,40.50
2022-12-17T06:51:25.189Z,37.20
2022-12-17T06:54:32.143Z,38.10
2022-12-17T06:57:41.280Z,36.22
2022-12-17T07:00:44.333Z,37.95
2022-12-17T07:03:44.718Z,36.95
2022-12-17T07:06:51.320Z,34.97
2022-12-17T07:10:09.334Z,36.88
2022-12-17T07:13:20.009Z,38.42
2022-12-17T07:16:21.291Z,37.05
2022-12-17T07:19:26.795Z,38.50
2022-12-17T07:22:34.172Z,38.60
2022-12-17T07:25:46.007Z,38.53
2022-12-17T07:28:47.366Z,39.75
2022-12-17T07:31:54.266Z,40.63
2022-12-17T07:34:55.313Z,34.95
2022-12-17T07:37:55.609Z,35.03
2022-12-17T07:41:02.311Z,36.03
2022-12-17T07:44:08.909Z,34.10
2022-12-17T07:47:09.354Z,35.78
2022-12-17T07:50:09.764Z,35.88
2022-12-17T07:53:16.223Z,37.60
2022-12-17T07:56:22.810Z,39.30
2022-12-17T07:59:23.300Z,39.05
2022-12-17T08:02:23.720Z,38.00
2022-12-17T08:05:30.277Z,37.65
2022-12-17T08:08:39.781Z,38.90
2022-12-17T08:11:40.166Z,38.72
2022-12-17T08:14:47.673Z,35.40
2022-12-17T08:17:48.078Z,35.05
2022-12-17T08:20:55.352Z,34.72
2022-12-17T08:23:55.777Z,35.42
2022-12-17T08:27:02.416Z,33.22
2022-12-17T08:30:03.136Z,34.55
2022-12-17T08:33:10.402Z,35.38
2022-12-17T08:36:20.976Z,35.65
2022-12-17T08:39:28.307Z,35.47
2022-12-17T08:42:36.160Z,39.53
2022-12-17T08:45:43.281Z,37.78
2022-12-17T08:48:51.169Z,38.15
2022-12-17T08:51:58.353Z,41.42
2022-12-17T08:54:59.345Z,43.00
2022-12-17T08:58:06.249Z,43.03
2022-12-17T09:01:08.083Z,41.75
2022-12-17T09:04:15.196Z,44.22
2022-12-17T09:07:16.267Z,46.92
2022-12-17T09:10:23.233Z,47.83
2022-12-17T09:13:28.407Z,49.72
2022-12-17T09:16:36.313Z,50.53
2022-12-17T09:19:44.386Z,47.80
2022-12-17T09:22:44.432Z,42.55
2022-12-17T09:25:55.048Z,37.40
2022-12-17T09:28:58.682Z,32.45
2022-12-17T09:32:06.289Z,36.75
2022-12-17T09:35:13.152Z,35.92
2022-12-17T09:38:30.321Z,36.38
2022-12-17T09:42:09.872Z,36.03
2022-12-17T09:45:57.400Z,38.65
2022-12-17T09:49:02.915Z,37.88
2022-12-17T09:52:11.190Z,37.97
2022-12-17T09:55:26.260Z,34.30
2022-12-17T09:58:28.792Z,32.03
2022-12-17T10:01:51.439Z,29.77
2022-12-17T10:05:12.244Z,30.63
2022-12-17T10:08:20.385Z,31.42
2022-12-17T10:11:21.846Z,31.95
2022-12-17T10:14:31.289Z,31.00
2022-12-17T10:17:36.924Z,29.60
2022-12-17T10:21:04.763Z,29.88
2022-12-17T10:24:04.779Z,30.67
2022-12-17T10:27:15.318Z,31.52
2022-12-17T10:30:15.814Z,31.83
2022-12-17T10:33:22.313Z,33.92
2022-12-17T10:36:22.886Z,37.03
2022-12-17T10:39:30.276Z,35.00
2022-12-17T10:42:47.207Z,38.78
2022-12-17T10:46:00.372Z,38.90
2022-12-17T10:49:01.157Z,36.88
2022-12-17T10:52:08.281Z,37.15
2022-12-17T10:55:08.931Z,38.88
2022-12-17T10:58:18.188Z,41.28
2022-12-17T11:01:27.093Z,40.67
2022-12-17T11:04:49.311Z,42.58
2022-12-17T11:08:06.995Z,42.88
2022-12-17T11:11:15.164Z,43.63
2022-12-17T11:14:28.264Z,43.80
2022-12-17T11:17:44.228Z,41.65
2022-12-17T11:20:55.226Z,41.17
2022-12-17T11:24:07.889Z,42.47
2022-12-17T11:27:22.159Z,40.30
2022-12-17T11:30:48.309Z,41.05
2022-12-17T11:34:10.880Z,41.20
2022-12-17T11:37:22.266Z,42.22
2022-12-17T11:40:47.721Z,43.30
2022-12-17T11:44:13.289Z,43.75
2022-12-17T11:47:29.549Z,46.45
2022-12-17T11:50:54.121Z,46.45
2022-12-17T11:54:11.940Z,47.55
2022-12-17T11:57:22.412Z,49.15
2022-12-17T12:00:41.762Z,49.83
2022-12-17T12:04:17.304Z,52.40
2022-12-17T12:07:37.602Z,52.03
2022-12-17T12:11:08.254Z,55.03
2022-12-17T12:14:31.757Z,56.72
2022-12-17T12:17:43.224Z,67.55
2022-12-17T12:21:14.258Z,113.80
2022-12-17T12:24:54.838Z,142.70
2022-12-17T12:28:17.607Z,142.80
2022-12-17T12:31:23.930Z,130.88
2022-12-17T12:34:35.377Z,111.82
2022-12-17T12:37:38.299Z,84.72
2022-12-17T12:40:55.270Z,80.63
2022-12-17T12:44:07.168Z,79.75
2022-12-17T12:47:43.251Z,76.20
2022-12-17T12:51:01.169Z,74.63
2022-12-17T12:54:08.178Z,72.57
2022-12-17T12:57:15.768Z,74.65
2022-12-17T13:00:16.228Z,77.75
2022-12-17T13:03:31.136Z,75.93
2022-12-17T13:06:21.227Z,74.13
2022-12-17T13:09:34.548Z,76.05
2022-12-17T13:12:32.673Z,76.78
2022-12-17T13:15:35.251Z,75.30
2022-12-17T13:18:33.648Z,75.38
2022-12-17T13:21:25.283Z,74.07
2022-12-17T13:24:18.593Z,75.80
2022-12-17T13:27:07.130Z,73.60
2022-12-17T13:29:49.526Z,74.53
2022-12-17T13:32:47.225Z,78.25
2022-12-17T13:36:01.554Z,77.95
2022-12-17T13:41:51.602Z,75.78
2022-12-17T13:44:49.139Z,81.32
2022-12-17T13:47:34.685Z,79.38
2022-12-17T13:50:36.788Z,83.75
2022-12-17T13:53:23.700Z,86.45
2022-12-17T13:56:12.170Z,81.57
2022-12-17T13:59:06.203Z,82.90
2022-12-17T14:01:56.328Z,80.18
2022-12-17T14:04:39.619Z,80.80
2022-12-17T14:07:28.189Z,84.57
2022-12-17T14:10:25.508Z,86.47
2022-12-17T14:13:24.250Z,86.03
2022-12-17T14:16:13.583Z,84.35
2022-12-17T14:19:05.255Z,84.22
2022-12-17T14:21:47.749Z,90.82
2022-12-17T14:24:40.338Z,90.75
2022-12-17T14:27:39.474Z,92.55
2022-12-17T14:30:30.283Z,89.07
2022-12-17T14:33:37.895Z,91.13
2022-12-17T14:36:34.236Z,91.70
2022-12-17T14:39:40.111Z,90.68
2022-12-17T14:42:40.129Z,90.38
2022-12-17T14:45:32.598Z,89.65
2022-12-17T14:48:23.235Z,92.50
2022-12-17T14:51:05.483Z,89.40
2022-12-17T14:53:54.276Z,89.45
2022-12-17T14:56:36.546Z,87.05
2022-12-17T14:59:49.167Z,88.22
2022-12-17T15:02:39.536Z,92.47
2022-12-17T15:05:24.182Z,88.43
2022-12-17T15:08:14.224Z,89.95
2022-12-17T15:11:06.183Z,97.00
2022-12-17T15:13:56.738Z,93.75
2022-12-17T15:16:39.649Z,98.90
2022-12-17T15:19:28.197Z,97.60
2022-12-17T15:22:19.295Z,96.75
2022-12-17T15:25:01.547Z,94.95
2022-12-17T15:27:50.240Z,99.07
2022-12-17T15:30:38.662Z,97.43
2022-12-17T15:33:27.290Z,96.68
2022-12-17T15:36:09.541Z,101.10
2022-12-17T15:38:58.307Z,103.65
2022-12-17T15:41:58.901Z,107.35
2022-12-17T15:44:48.304Z,103.68
2022-12-17T15:47:30.547Z,103.10
2022-12-17T15:50:19.277Z,106.13
2022-12-17T15:53:01.602Z,106.47
2022-12-17T15:55:50.251Z,108.72
2022-12-17T15:58:32.542Z,118.55
2022-12-17T16:01:21.272Z,122.10
2022-12-17T16:04:16.813Z,117.72
2022-12-17T16:07:08.258Z,116.05
2022-12-17T16:09:50.517Z,116.22
2022-12-17T16:12:39.237Z,118.53
2022-12-17T16:15:29.326Z,114.35
2022-12-17T16:18:18.787Z,116.22
2022-12-17T16:21:01.249Z,117.47
2022-12-17T16:23:50.714Z,118.22
2022-12-17T16:26:32.182Z,115.15
2022-12-17T16:29:20.525Z,116.60
2022-12-17T16:32:16.278Z,115.63
2022-12-17T16:34:58.470Z,114.85
2022-12-17T16:37:47.369Z,111.65
2022-12-17T16:40:35.501Z,109.65
2022-12-17T16:43:18.267Z,113.60
2022-12-17T16:46:00.527Z,116.90
2022-12-17T16:48:53.302Z,115.90
2022-12-17T16:54:27.254Z,115.32
2022-12-17T16:57:15.554Z,118.32
2022-12-17T16:59:58.280Z,116.13
2022-12-17T17:02:52.792Z,115.78
2022-12-17T17:05:39.232Z,111.63
2022-12-17T17:08:29.117Z,110.90
2022-12-17T17:11:24.545Z,112.32
2022-12-17T17:14:14.092Z,112.35
2022-12-17T17:16:56.475Z,109.00
2022-12-17T17:19:45.271Z,107.75
2022-12-17T17:22:27.689Z,111.45
2022-12-17T17:25:16.675Z,112.43
2022-12-17T17:27:58.523Z,112.22
2022-12-17T17:30:47.215Z,110.50
2022-12-17T17:33:40.801Z,114.22
2022-12-17T17:36:31.226Z,119.67
2022-12-17T17:39:19.535Z,114.20
2022-12-17T17:42:01.266Z,118.03
2022-12-17T17:44:50.018Z,117.25
2022-12-17T17:47:33.285Z,117.07
2022-12-17T17:50:15.397Z,121.97
2022-12-17T17:53:04.229Z,125.05
2022-12-17T17:55:53.225Z,121.03
2022-12-17T17:58:35.705Z,124.35
2022-12-17T18:01:37.282Z,128.00
2022-12-17T18:04:29.224Z,121.35
2022-12-17T18:07:26.602Z,125.75
2022-12-17T18:10:10.011Z,122.75
2022-12-17T18:13:17.141Z,124.53
2022-12-17T18:16:06.290Z,132.18
2022-12-17T18:18:56.063Z,135.70
2022-12-17T18:21:41.176Z,134.65
2022-12-17T18:24:24.495Z,131.00
2022-12-17T18:27:13.094Z,130.70
2022-12-17T18:30:02.143Z,124.68
2022-12-17T18:32:58.128Z,126.47
2022-12-17T18:35:40.495Z,124.28
2022-12-17T18:38:29.253Z,126.38
2022-12-17T18:41:46.097Z,124.32
2022-12-17T18:44:36.323Z,127.05
2022-12-17T18:47:26.445Z,126.00
2022-12-17T18:50:08.266Z,127.22
2022-12-17T18:53:12.065Z,123.22
2022-12-17T18:56:01.167Z,126.70
2022-12-17T18:58:50.244Z,126.80
2022-12-17T19:01:35.811Z,125.47
2022-12-17T19:04:28.144Z,125.57
2022-12-17T19:07:17.556Z,129.32
2022-12-17T19:10:00.117Z,127.85
2022-12-17T19:12:48.535Z,128.93
2022-12-17T19:15:31.282Z,126.50
2022-12-17T19:18:20.601Z,129.57
2022-12-17T19:21:08.186Z,125.15
2022-12-17T19:23:58.754Z,126.20
2022-12-17T19:26:41.169Z,125.10
2022-12-17T19:29:30.540Z,126.40
2022-12-17T19:32:13.484Z,127.18
2022-12-17T19:34:55.575Z,127.05
2022-12-17T19:37:44.273Z,129.02
2022-12-17T19:40:32.490Z,129.00
2022-12-17T19:43:15.243Z,127.55
2022-12-17T19:46:04.174Z,132.27
2022-12-17T19:48:57.348Z,126.60
2022-12-17T19:51:45.526Z,130.45
2022-12-17T19:54:27.217Z,185.90
2022-12-17T19:57:15.491Z,206.63
2022-12-17T19:59:57.225Z,193.20
2022-12-17T20:02:48.406Z,161.32
2022-12-17T20:05:37.142Z,139.10
2022-12-17T20:08:22.465Z,128.73
2022-12-17T20:11:12.175Z,126.55
2022-12-17T20:14:03.237Z,128.98
2022-12-17T20:16:48.561Z,129.75
2022-12-17T20:19:42.137Z,129.43
2022-12-17T20:22:24.611Z,126.72
2022-12-17T20:25:17.154Z,123.35
2022-12-17T20:27:59.567Z,127.22
2022-12-17T20:30:49.144Z,124.60
2022-12-17T20:33:38.107Z,119.43
2022-12-17T20:36:22.173Z,121.07
2022-12-17T20:39:11.189Z,122.50
2022-12-17T20:41:53.342Z,121.55
2022-12-17T20:44:42.117Z,121.55
2022-12-17T20:47:31.239Z,121.95
2022-12-17T20:50:13.564Z,124.22
2022-12-17T20:53:02.197Z,122.97
2022-12-17T20:55:44.509Z,125.82
2022-12-17T20:58:33.244Z,130.27
2022-12-17T21:01:26.293Z,135.70
2022-12-17T21:04:14.570Z,138.30
2022-12-17T21:06:57.228Z,138.00
2022-12-17T21:09:39.491Z,129.75
2022-12-17T21:12:28.187Z,129.40
2022-12-17T21:15:17.564Z,126.20
2022-12-17T21:18:00.181Z,127.10
2022-12-17T21:20:43.892Z,125.50
2022-12-17T21:23:33.295Z,126.78
2022-12-17T21:26:30.277Z,140.93
2022-12-17T21:29:15.059Z,169.02
2022-12-17T21:32:11.203Z,147.48
2022-12-17T21:34:59.539Z,135.10
2022-12-17T21:37:41.198Z,128.18
2022-12-17T21:40:29.739Z,126.28
2022-12-17T21:43:11.189Z,128.13
2022-12-17T21:46:04.652Z,125.32
2022-12-17T21:48:49.574Z,128.07
2022-12-17T21:51:39.439Z,128.50
2022-12-17T21:54:21.104Z,126.30
2022-12-17T21:57:10.278Z,130.10
2022-12-17T21:59:52.495Z,131.52
2022-12-17T22:02:42.362Z,130.88
2022-12-17T22:05:24.514Z,128.93
2022-12-17T22:08:13.233Z,124.72
2022-12-17T22:10:55.454Z,128.88
2022-12-17T22:14:08.030Z,132.15
2022-12-17T22:17:01.097Z,126.65
2022-12-17T22:19:50.187Z,126.72
2022-12-17T22:22:39.090Z,129.98
2022-12-17T22:25:28.116Z,129.48
2022-12-17T22:28:17.146Z,132.00
2022-12-17T22:31:29.892Z,132.23
2022-12-17T22:34:59.333Z,137.52
2022-12-17T22:41:00.392Z,138.00
2022-12-17T22:44:30.302Z,133.05
2022-12-17T22:44:51.860Z,137.20
2022-12-17T22:46:43.218Z,131.45
2022-12-17T22:49:27.512Z,130.20
2022-12-17T22:55:00.491Z,129.10
2022-12-17T22:57:49.238Z,130.23
2022-12-17T23:00:34.484Z,127.20
2022-12-17T23:03:23.269Z,127.82
2022-12-17T23:06:23.546Z,126.53
2022-12-17T23:09:12.221Z,127.55
2022-12-17T23:11:56.500Z,129.20
2022-12-17T23:14:45.255Z,128.18
2022-12-17T23:17:27.425Z,127.32
2022-12-17T23:20:17.180Z,128.63
2022-12-17T23:22:59.469Z,128.63
2022-12-17T23:25:49.171Z,128.80
2022-12-17T23:28:31.511Z,127.57
2022-12-17T23:31:27.235Z,127.95
2022-12-17T23:34:16.454Z,127.57
2022-12-17T23:36:58.151Z,129.68
2022-12-17T23:39:47.148Z,127.90
2022-12-17T23:42:36.011Z,126.72
2022-12-17T23:45:25.453Z,128.35
2022-12-17T23:48:08.943Z,128.60
2022-12-17T23:50:59.078Z,125.70
2022-12-17T23:53:43.536Z,125.75
2022-12-17T23:56:34.402Z,129.60
2022-12-17T23:59:18.383Z,122.03
